Flight Track Log - Related Links

Times and Time Zones

All times are in EDT time to prevent confusion due to time zone crossing. See the DAL1562 flight status page for this flight to view local times or setup timezone preferences in your user account.

Time Position Orientation Groundspeed Altitude Reporting Facility
EDT Latitude Longitude Course Direction KTS km/h feet Rate Location/Type
Fri 18h23:19 39.8833 -75.2167 96° East 161 298 800  Level Philadelphia TRACON
Fri 18h23:47 39.8814 -75.1931 96° East 188 348 1.300 1.625 Climbing FAA TRACON SMA TRACON (SMA)
Fri 18h24:07 39.8892 -75.1617 72° East 243 451 2.100 1.950 Climbing FAA TRACON SMA TRACON (SMA)
Fri 18h24:27 39.8975 -75.1331 69° East 264 489 2.600 1.800 Climbing FAA TRACON SMA TRACON (SMA)
Fri 18h24:47 39.9103 -75.1067 58° Northeast 292 541 3.300 2.550 Climbing FAA TRACON SMA TRACON (SMA)
Fri 18h25:07 39.9328 -75.0947 22° Northeast 290 538 4.300 3.600 Climbing FAA TRACON SMA TRACON (SMA)
Fri 18h25:27 39.9572 -75.1014 348° North 282 523 5.700 3.450 Climbing FAA TRACON SMA TRACON (SMA)
Fri 18h25:47 39.9736 -75.1278 309° West 269 499 6.600 2.700 Climbing FAA TRACON SMA TRACON (SMA)
Fri 18h26:07 39.9778 -75.1581 280° West 277 513 7.500 3.450 Climbing FAA TRACON SMA TRACON (SMA)
Fri 18h26:27 39.9750 -75.1933 264° West 257 476 8.900 3.150 Climbing FAA TRACON SMA TRACON (SMA)
Fri 18h26:47 39.9717 -75.2225 262° West 259 480 9.600 1.650 Climbing FAA TRACON SMA TRACON (SMA)
Fri 18h27:07 39.9675 -75.2508 259° West 262 486 10.000 750 Climbing FAA TRACON SMA TRACON (SMA)
Fri 18h27:27 39.9631 -75.2886 261° West 285 528 10.100 150 Climbing FAA TRACON SMA TRACON (SMA)
Fri 18h27:47 39.9589 -75.3236 261° West 316 586 10.100 -150 Level FAA TRACON SMA TRACON (SMA)
Fri 18h28:07 39.9536 -75.3700 262° West 345 639 10.000 -150 Descending FAA TRACON SMA TRACON (SMA)
Fri 18h28:27 39.9497 -75.4069 262° West 337 624 10.000  Level FAA TRACON SMA TRACON (SMA)
Fri 18h28:47 39.9453 -75.4453 261° West 342 634 10.000  Level FAA TRACON SMA TRACON (SMA)
Fri 18h29:07 39.9397 -75.4928 261° West 345 639 10.000  Level FAA TRACON SMA TRACON (SMA)
Fri 18h29:27 39.9378 -75.5297 266° West 346 641 10.000 150 Level FAA TRACON SMA TRACON (SMA)
Fri 18h29:47 39.9369 -75.5697 268° West 345 639 10.100 1.500 Climbing FAA TRACON SMA TRACON (SMA)
Fri 18h30:07 39.9375 -75.6175 271° West 348 644 11.000 1.650 Climbing FAA TRACON SMA TRACON (SMA)
Fri 18h30:27 39.9375 -75.6269 270° West 349 647 11.200 200 Climbing FAA TRACON SMA TRACON (SMA)
Fri 18h31:07 39.9375 -75.6269 270° West 349 647 11.200 2.242 Level FAA TRACON SMA TRACON (SMA)
Fri 18h33:29 39.9344 -76.0583 270° West 368 681 18.000 2.554 Climbing New York Center
Fri 18h34:29 39.9364 -76.1992 271° West 379 702 19.800 1.714 Climbing New York Center
Fri 18h35:28 39.9339 -76.3453 269° West 394 729 21.400 1.438 Climbing New York Center
Fri 18h36:30 39.9333 -76.4886 270° West 404 748 22.700 1.180 Climbing New York Center
Fri 18h37:30 39.9297 -76.6428 268° West 404 748 23.800 1.322 Climbing New York Center
Fri 18h38:28 39.9433 -76.7900 277° West 416 771 25.300 1.563 Climbing New York Center
Fri 18h39:29 39.9711 -76.9389 284° West 424 785 26.900 1.537 Climbing New York Center
Fri 18h40:29 39.9967 -77.0819 283° West 424 785 28.400 1.488 Climbing New York Center
Fri 18h41:30 40.0225 -77.2253 283° West 413 764 29.900 600 Climbing New York Center
Fri 18h43:09 40.0656 -77.4469 284° West 400 740 30.000 38 Climbing Cleveland Center
Fri 18h44:09 40.0881 -77.5869 282° West 394 729 30.000  Level Cleveland Center
Fri 18h45:09 40.1147 -77.7244 284° West 394 729 30.000  Level Cleveland Center
Fri 18h46:09 40.1347 -77.8647 281° West 394 729 30.000  Level Cleveland Center
Fri 18h47:09 40.1358 -78.0031 271° West 389 721 30.000  Level Cleveland Center
Fri 18h48:09 40.1369 -78.1417 271° West 384 711 30.000  Level Cleveland Center
Fri 18h49:09 40.1378 -78.2803 270° West 384 711 30.000  Level Cleveland Center
Fri 18h50:09 40.1403 -78.4186 271° West 384 711 30.000  Level Cleveland Center
Fri 18h51:09 40.1428 -78.5542 271° West 384 711 30.000  Level Cleveland Center
Fri 18h52:09 40.1683 -78.6922 284° West 384 711 30.000  Level Cleveland Center
Fri 18h53:09 40.2017 -78.8269 288° West 389 721 30.000  Level Cleveland Center
Fri 18h54:09 40.2350 -78.9650 288° West 394 729 30.000  Level Cleveland Center
Fri 18h55:09 40.2722 -79.1000 290° West 399 739 30.000  Level Cleveland Center
Fri 18h56:09 40.3197 -79.2353 295° West 404 748 30.000  Level Cleveland Center
Fri 18h57:09 40.3756 -79.3786 297° West 409 758 30.000  Level Cleveland Center
Fri 18h58:09 40.4206 -79.4978 296° West 409 758 30.000  Level Cleveland Center
Fri 18h59:09 40.4675 -79.6253 296° West 402 745 30.000  Level Cleveland Center
Fri 19h00:09 40.5144 -79.7556 295° West 402 745 30.000  Level Cleveland Center
Fri 19h01:09 40.5633 -79.8861 296° West 397 735 30.000  Level Cleveland Center
Fri 19h02:09 40.6119 -80.0197 296° West 397 735 30.000  Level Cleveland Center
Fri 19h03:09 40.6583 -80.1533 295° West 397 735 30.000  Level Cleveland Center
Fri 19h04:09 40.7067 -80.2900 295° West 397 735 30.000  Level Cleveland Center
Fri 19h05:09 40.7550 -80.4242 295° West 397 735 30.000  Level Cleveland Center
Fri 19h06:09 40.8050 -80.5583 296° West 397 735 30.000  Level Cleveland Center
Fri 19h07:09 40.8550 -80.7039 294° West 397 735 30.000  Level Cleveland Center
Fri 19h08:09 40.8986 -80.8219 296° West 397 735 30.000  Level Cleveland Center
Fri 19h09:09 40.9461 -80.9569 295° West 402 745 30.000  Level Cleveland Center
Fri 19h10:09 40.9978 -81.1114 294° West 407 753 30.000 -150 Level Cleveland Center
Fri 19h11:09 41.0450 -81.2494 294° West 407 753 29.700 -550 Descending Cleveland Center
Fri 19h12:09 41.0942 -81.3875 295° West 412 763 28.900 -600 Descending Cleveland Center
Fri 19h13:09 41.1392 -81.5122 296° West 417 772 28.500 -400 Descending Cleveland Center
Fri 19h14:09 41.1878 -81.6453 296° West 417 772 28.100 -500 Descending Cleveland Center
Fri 19h15:09 41.2322 -81.7869 293° West 417 772 27.500 -726 Descending Cleveland Center
Fri 19h16:46 41.3119 -82.0183 295° West 415 769 26.200 -821 Descending FAA TRACON SMA TRACON (SMA)
Fri 19h17:06 41.3306 -82.0742 294° West 415 769 25.900 -923 Descending FAA TRACON SMA TRACON (SMA)
Fri 19h17:25 41.3403 -82.1017 295° West 414 766 25.600 -1.350 Descending FAA TRACON SMA TRACON (SMA)
Fri 19h17:46 41.3592 -82.1567 295° West 412 763 25.000 -2.341 Descending FAA TRACON SMA TRACON (SMA)
Fri 19h18:06 41.3806 -82.2089 299° West 409 758 24.000 -2.250 Descending FAA TRACON SMA TRACON (SMA)
Fri 19h18:26 41.3931 -82.2328 305° West 403 747 23.500 -2.250 Descending FAA TRACON SMA TRACON (SMA)
Fri 19h18:46 41.4278 -82.2717 320° Northwest 411 761 22.500 -2.923 Descending FAA TRACON SMA TRACON (SMA)
Fri 19h19:05 41.4531 -82.3167 307° West 377 698 21.600 -2.250 Descending FAA TRACON SMA TRACON (SMA)
Fri 19h19:26 41.4675 -82.3364 314° West 373 690 21.000 -2.195 Descending FAA TRACON SMA TRACON (SMA)
Fri 19h19:46 41.4942 -82.3831 307° West 385 713 20.100 -2.850 Descending FAA TRACON SMA TRACON (SMA)
Fri 19h20:06 41.5194 -82.4242 309° West 356 660 19.100 -2.700 Descending FAA TRACON SMA TRACON (SMA)
Fri 19h20:26 41.5400 -82.4619 306° West 374 692 18.300 -2.550 Descending FAA TRACON SMA TRACON (SMA)
Fri 19h20:46 41.5594 -82.4942 309° West 362 671 17.400 -2.850 Descending FAA TRACON SMA TRACON (SMA)
Fri 19h21:06 41.5833 -82.5342 309° West 359 665 16.400 -2.700 Descending FAA TRACON SMA TRACON (SMA)
Fri 19h21:26 41.6022 -82.5661 308° West 357 661 15.600 -2.400 Descending FAA TRACON SMA TRACON (SMA)
Fri 19h21:46 41.6211 -82.5975 309° West 355 658 14.800 -2.400 Descending FAA TRACON SMA TRACON (SMA)
Fri 19h22:06 41.6444 -82.6367 309° West 351 650 14.000 -2.250 Descending FAA TRACON SMA TRACON (SMA)
Fri 19h22:26 41.6628 -82.6669 309° West 346 641 13.300 -2.250 Descending FAA TRACON SMA TRACON (SMA)
Fri 19h22:46 41.6808 -82.6978 308° West 344 637 12.500 -2.000 Descending FAA TRACON SMA TRACON (SMA)
Fri 19h23:05 41.7008 -82.7339 307° West 342 634 12.000 -750 Descending FAA TRACON SMA TRACON (SMA)
Fri 19h23:26 41.7214 -82.7667 310° West 340 629 12.000  Level FAA TRACON SMA TRACON (SMA)
Fri 19h23:46 41.7411 -82.7953 313° West 341 631 12.000  Level FAA TRACON SMA TRACON (SMA)
Fri 19h24:06 41.7686 -82.8278 319° Northwest 350 649 12.000  Level FAA TRACON SMA TRACON (SMA)
Fri 19h24:26 41.7903 -82.8539 318° Northwest 344 637 12.000  Level FAA TRACON SMA TRACON (SMA)
Fri 19h24:46 41.8117 -82.8806 317° Northwest 341 631 12.000  Level FAA TRACON SMA TRACON (SMA)
Fri 19h25:06 41.8383 -82.9139 317° Northwest 342 634 12.000  Level FAA TRACON SMA TRACON (SMA)
Fri 19h25:26 41.8600 -82.9406 317° Northwest 342 634 12.000  Level FAA TRACON SMA TRACON (SMA)
Fri 19h25:46 41.8819 -82.9669 318° Northwest 343 636 12.000  Level FAA TRACON SMA TRACON (SMA)
Fri 19h26:06 41.9094 -82.9997 318° Northwest 344 637 12.000  Level FAA TRACON SMA TRACON (SMA)
Fri 19h26:26 41.9314 -83.0261 318° Northwest 344 637 12.000  Level FAA TRACON SMA TRACON (SMA)
Fri 19h26:46 41.9533 -83.0522 318° Northwest 343 636 12.000  Level FAA TRACON SMA TRACON (SMA)
Fri 19h27:05 41.9778 -83.0814 318° Northwest 343 636 12.000 -150 Level FAA TRACON SMA TRACON (SMA)
Fri 19h27:26 42.0022 -83.1111 318° Northwest 340 629 11.900 -146 Descending FAA TRACON SMA TRACON (SMA)
Fri 19h27:46 42.0211 -83.1350 317° Northwest 332 615 11.900 140 Level Cleveland Center
Fri 19h28:09 42.0436 -83.1639 316° Northwest 330 612 12.000 98 Climbing Cleveland Center
Fri 19h28:47 42.0800 -83.2047 320° Northwest 234 433 12.000  Level Cleveland Center
Fri 19h29:09 42.0881 -83.2161 314° West 276 512 12.000  Level Cleveland Center
Fri 19h29:42 42.1317 -83.2319 345° North 236 438 12.000 -526 Level Cleveland Center
Fri 19h30:06 42.1608 -83.2342 357° North 244 452 11.500 -1.636 Descending FAA TRACON SMA TRACON (SMA)
Fri 19h30:26 42.1842 -83.2331 North 270 501 10.800 -1.650 Descending FAA TRACON SMA TRACON (SMA)
Fri 19h30:46 42.2042 -83.2194 27° Northeast 254 470 10.400 -1.500 Descending FAA TRACON SMA TRACON (SMA)
Fri 19h31:06 42.2289 -83.2019 28° Northeast 261 483 9.800 -1.500 Descending FAA TRACON SMA TRACON (SMA)
Fri 19h31:26 42.2481 -83.1869 30° Northeast 260 481 9.400 -1.350 Descending FAA TRACON SMA TRACON (SMA)
Fri 19h31:46 42.2664 -83.1731 29° Northeast 249 462 8.900 -1.800 Descending FAA TRACON SMA TRACON (SMA)
Fri 19h32:06 42.2892 -83.1558 29° Northeast 244 452 8.200 -1.950 Descending FAA TRACON SMA TRACON (SMA)
Fri 19h32:26 42.3069 -83.1419 30° Northeast 242 447 7.600 -1.950 Descending FAA TRACON SMA TRACON (SMA)
Fri 19h32:46 42.3286 -83.1244 31° Northeast 238 441 6.900 -2.100 Descending FAA TRACON SMA TRACON (SMA)
Fri 19h33:06 42.3461 -83.1108 30° Northeast 237 439 6.200 -2.154 Descending FAA TRACON SMA TRACON (SMA)
Fri 19h33:25 42.3636 -83.0972 30° Northeast 236 438 5.500 -1.650 Descending FAA TRACON SMA TRACON (SMA)
Fri 19h33:46 42.3850 -83.1039 347° North 207 383 5.100 -878 Descending FAA TRACON SMA TRACON (SMA)
Fri 19h34:06 42.3925 -83.1208 301° West 162 299 4.900 -750 Descending FAA TRACON SMA TRACON (SMA)
Fri 19h34:26 42.3994 -83.1369 300° West 164 304 4.600 -900 Descending FAA TRACON SMA TRACON (SMA)
Fri 19h34:46 42.4000 -83.1586 272° West 159 295 4.300 -750 Descending FAA TRACON SMA TRACON (SMA)
Fri 19h35:06 42.3933 -83.1736 239° Southwest 158 293 4.100 -450 Descending FAA TRACON SMA TRACON (SMA)
Fri 19h35:26 42.3847 -83.1917 237° Southwest 156 290 4.000 -150 Descending FAA TRACON SMA TRACON (SMA)
Fri 19h35:46 42.3772 -83.2064 235° Southwest 158 293 4.000 -300 Level FAA TRACON SMA TRACON (SMA)
Fri 19h36:06 42.3678 -83.2233 233° Southwest 163 303 3.800 -450 Descending FAA TRACON SMA TRACON (SMA)
Fri 19h36:26 42.3531 -83.2347 210° Southwest 164 304 3.700 -600 Descending FAA TRACON SMA TRACON (SMA)
Fri 19h36:46 42.3406 -83.2444 210° Southwest 161 298 3.400 -750 Descending FAA TRACON SMA TRACON (SMA)
Fri 19h37:06 42.3275 -83.2542 209° Southwest 160 296 3.200 -769 Descending FAA TRACON SMA TRACON (SMA)
Fri 19h37:25 42.3161 -83.2628 209° Southwest 159 295 2.900 -900 Descending FAA TRACON SMA TRACON (SMA)
Fri 19h37:46 42.3017 -83.2736 209° Southwest 158 293 2.600 -878 Descending FAA TRACON SMA TRACON (SMA)
Fri 19h38:06 42.2908 -83.2817 209° Southwest 147 272 2.300 -900 Descending FAA TRACON SMA TRACON (SMA)
Fri 19h38:26 42.2794 -83.2900 208° Southwest 130 241 2.000 -750 Descending FAA TRACON SMA TRACON (SMA)
Fri 19h38:46 42.2683 -83.2983 209° Southwest 129 238 1.800 -600 Descending FAA TRACON SMA TRACON (SMA)
Fri 19h39:06 42.2589 -83.3053 209° Southwest 131 243 1.600 -750 Descending FAA TRACON SMA TRACON (SMA)
Fri 19h39:26 42.2469 -83.3139 208° Southwest 133 246 1.300 -900 Descending FAA TRACON SMA TRACON (SMA)
Fri 19h39:46 42.2353 -83.3225 209° Southwest 136 253 1.000 -750 Descending FAA TRACON SMA TRACON (SMA)
Fri 19h40:06 42.2256 -83.3297 209° Southwest 131 243 800 -600 Descending FAA TRACON SMA TRACON (SMA)

Login

Don't have an account? Register now (free) for customized features, flight alerts, and more!